Terminal Aerodrome Forecast
Issued by NWS Louisville, KY

Home | Current Version | Previous Version | Text Only | Print | Product List | Glossary On
Versions: 1 2 3 4 5 6 7 8 9 10 11 12 13 14 15 16 17 18 19 20 21 22 23
000
FTUS43 KLMK 210535
TAFLEX
TAF
KLEX 210535Z 2106/2206 23011KT P6SM VCSH SCT050 BKN100
     FM210700 27009KT P6SM VCSH BKN022
      TEMPO 2107/2111 29008KT BKN018
     FM211100 31007KT P6SM BKN025
     FM211500 31007KT P6SM BKN050
     FM220300 03010KT 5SM -SHRA OVC025=

USA.gov is the U.S. government's official web portal to all federal, state and local government web resources and services.